sensor_id;sensor_type;location;lat;lon;timestamp;P1;durP1;ratioP1;P2;durP2;ratioP2
12816;SDS011;6473;51.552;6.716;2023-11-19T00:08:44;16.77;;;12.63;;
12816;SDS011;6473;51.552;6.716;2023-11-19T00:11:13;15.98;;;11.65;;
12816;SDS011;6473;51.552;6.716;2023-11-19T00:13:40;16.50;;;12.52;;
12816;SDS011;6473;51.552;6.716;2023-11-19T00:16:07;14.68;;;11.32;;
12816;SDS011;6473;51.552;6.716;2023-11-19T00:21:30;12.63;;;10.70;;
12816;SDS011;6473;51.552;6.716;2023-11-19T00:23:58;14.68;;;10.68;;
12816;SDS011;6473;51.552;6.716;2023-11-19T00:26:26;13.82;;;9.85;;
12816;SDS011;6473;51.552;6.716;2023-11-19T00:28:56;12.10;;;9.70;;
12816;SDS011;6473;51.552;6.716;2023-11-19T00:31:24;12.43;;;9.68;;
12816;SDS011;6473;51.552;6.716;2023-11-19T00:33:51;12.68;;;8.82;;
12816;SDS011;6473;51.552;6.716;2023-11-19T00:36:30;12.90;;;8.82;;
12816;SDS011;6473;51.552;6.716;2023-11-19T00:42:46;11.10;;;7.95;;
12816;SDS011;6473;51.552;6.716;2023-11-19T00:45:13;10.05;;;7.95;;
12816;SDS011;6473;51.552;6.716;2023-11-19T00:47:40;9.32;;;7.78;;
12816;SDS011;6473;51.552;6.716;2023-11-19T00:50:08;10.40;;;7.88;;
12816;SDS011;6473;51.552;6.716;2023-11-19T00:52:54;10.95;;;8.10;;
12816;SDS011;6473;51.552;6.716;2023-11-19T00:55:21;14.38;;;7.78;;
12816;SDS011;6473;51.552;6.716;2023-11-19T00:57:50;7.82;;;6.97;;
12816;SDS011;6473;51.552;6.716;2023-11-19T01:00:17;9.07;;;7.05;;
12816;SDS011;6473;51.552;6.716;2023-11-19T01:05:46;9.35;;;7.05;;
12816;SDS011;6473;51.552;6.716;2023-11-19T01:08:14;7.35;;;6.47;;
12816;SDS011;6473;51.552;6.716;2023-11-19T01:10:42;8.20;;;6.03;;
12816;SDS011;6473;51.552;6.716;2023-11-19T01:13:10;6.35;;;5.75;;
12816;SDS011;6473;51.552;6.716;2023-11-19T01:15:37;6.95;;;6.25;;
12816;SDS011;6473;51.552;6.716;2023-11-19T01:18:07;8.70;;;5.72;;
12816;SDS011;6473;51.552;6.716;2023-11-19T01:20:34;7.38;;;6.07;;
12816;SDS011;6473;51.552;6.716;2023-11-19T01:23:01;8.10;;;6.10;;
12816;SDS011;6473;51.552;6.716;2023-11-19T01:25:28;6.90;;;5.93;;
12816;SDS011;6473;51.552;6.716;2023-11-19T01:27:54;7.65;;;5.63;;
12816;SDS011;6473;51.552;6.716;2023-11-19T01:30:24;6.25;;;5.65;;
12816;SDS011;6473;51.552;6.716;2023-11-19T01:32:51;6.03;;;5.38;;
12816;SDS011;6473;51.552;6.716;2023-11-19T01:35:18;6.78;;;5.47;;
12816;SDS011;6473;51.552;6.716;2023-11-19T01:37:45;6.60;;;5.43;;
12816;SDS011;6473;51.552;6.716;2023-11-19T01:40:12;5.70;;;5.13;;
12816;SDS011;6473;51.552;6.716;2023-11-19T01:45:38;6.50;;;5.72;;
12816;SDS011;6473;51.552;6.716;2023-11-19T01:48:06;6.47;;;5.70;;
12816;SDS011;6473;51.552;6.716;2023-11-19T01:50:36;6.20;;;5.32;;
12816;SDS011;6473;51.552;6.716;2023-11-19T01:53:03;7.40;;;5.38;;
12816;SDS011;6473;51.552;6.716;2023-11-19T01:55:30;7.20;;;4.90;;
12816;SDS011;6473;51.552;6.716;2023-11-19T02:08:51;6.93;;;5.10;;
12816;SDS011;6473;51.552;6.716;2023-11-19T02:11:18;5.85;;;4.50;;
12816;SDS011;6473;51.552;6.716;2023-11-19T02:13:45;6.82;;;5.20;;
12816;SDS011;6473;51.552;6.716;2023-11-19T02:16:12;6.57;;;5.20;;
12816;SDS011;6473;51.552;6.716;2023-11-19T02:18:39;5.45;;;4.95;;
12816;SDS011;6473;51.552;6.716;2023-11-19T02:21:06;8.25;;;5.00;;
12816;SDS011;6473;51.552;6.716;2023-11-19T02:23:36;10.32;;;5.25;;
12816;SDS011;6473;51.552;6.716;2023-11-19T02:26:05;7.05;;;4.47;;
12816;SDS011;6473;51.552;6.716;2023-11-19T02:28:41;7.32;;;4.70;;
12816;SDS011;6473;51.552;6.716;2023-11-19T02:31:08;7.78;;;4.63;;
12816;SDS011;6473;51.552;6.716;2023-11-19T02:33:36;9.70;;;4.60;;
12816;SDS011;6473;51.552;6.716;2023-11-19T02:36:04;6.35;;;4.53;;
12816;SDS011;6473;51.552;6.716;2023-11-19T02:38:32;10.35;;;4.60;;
12816;SDS011;6473;51.552;6.716;2023-11-19T02:40:59;7.88;;;4.53;;
12816;SDS011;6473;51.552;6.716;2023-11-19T02:43:30;7.53;;;3.88;;
12816;SDS011;6473;51.552;6.716;2023-11-19T02:46:01;7.35;;;3.88;;
12816;SDS011;6473;51.552;6.716;2023-11-19T02:48:29;6.88;;;3.72;;
12816;SDS011;6473;51.552;6.716;2023-11-19T02:50:56;5.97;;;4.03;;
12816;SDS011;6473;51.552;6.716;2023-11-19T02:53:24;7.47;;;4.00;;
12816;SDS011;6473;51.552;6.716;2023-11-19T02:55:54;6.22;;;3.70;;
12816;SDS011;6473;51.552;6.716;2023-11-19T02:58:26;10.27;;;3.92;;
12816;SDS011;6473;51.552;6.716;2023-11-19T03:00:54;11.68;;;3.38;;
12816;SDS011;6473;51.552;6.716;2023-11-19T03:03:26;8.07;;;3.63;;
12816;SDS011;6473;51.552;6.716;2023-11-19T03:06:03;8.95;;;3.55;;
12816;SDS011;6473;51.552;6.716;2023-11-19T03:08:31;10.50;;;3.90;;
12816;SDS011;6473;51.552;6.716;2023-11-19T03:10:58;7.93;;;3.47;;
12816;SDS011;6473;51.552;6.716;2023-11-19T03:13:25;9.82;;;4.25;;
12816;SDS011;6473;51.552;6.716;2023-11-19T03:15:53;5.95;;;3.95;;
12816;SDS011;6473;51.552;6.716;2023-11-19T03:18:20;8.20;;;3.90;;
12816;SDS011;6473;51.552;6.716;2023-11-19T03:20:48;7.65;;;3.55;;
12816;SDS011;6473;51.552;6.716;2023-11-19T03:23:15;8.98;;;3.25;;
12816;SDS011;6473;51.552;6.716;2023-11-19T03:25:42;5.10;;;3.28;;
12816;SDS011;6473;51.552;6.716;2023-11-19T03:28:09;6.88;;;3.53;;
12816;SDS011;6473;51.552;6.716;2023-11-19T03:30:37;10.15;;;3.65;;
12816;SDS011;6473;51.552;6.716;2023-11-19T03:33:04;7.72;;;3.50;;
12816;SDS011;6473;51.552;6.716;2023-11-19T03:35:31;13.15;;;3.10;;
12816;SDS011;6473;51.552;6.716;2023-11-19T03:38:00;7.15;;;3.40;;
12816;SDS011;6473;51.552;6.716;2023-11-19T03:40:27;13.15;;;3.60;;
12816;SDS011;6473;51.552;6.716;2023-11-19T03:42:55;12.25;;;3.72;;
12816;SDS011;6473;51.552;6.716;2023-11-19T03:45:22;11.15;;;3.63;;
12816;SDS011;6473;51.552;6.716;2023-11-19T03:47:49;17.02;;;3.90;;
12816;SDS011;6473;51.552;6.716;2023-11-19T03:50:17;17.35;;;3.92;;
12816;SDS011;6473;51.552;6.716;2023-11-19T03:52:45;15.85;;;4.38;;
12816;SDS011;6473;51.552;6.716;2023-11-19T03:55:13;10.10;;;3.05;;
12816;SDS011;6473;51.552;6.716;2023-11-19T03:57:40;17.27;;;3.88;;
12816;SDS011;6473;51.552;6.716;2023-11-19T04:00:08;17.10;;;4.30;;
12816;SDS011;6473;51.552;6.716;2023-11-19T04:02:39;17.92;;;3.78;;
12816;SDS011;6473;51.552;6.716;2023-11-19T04:05:07;8.48;;;3.33;;
12816;SDS011;6473;51.552;6.716;2023-11-19T04:07:35;12.77;;;2.88;;
12816;SDS011;6473;51.552;6.716;2023-11-19T04:10:02;14.02;;;3.42;;
12816;SDS011;6473;51.552;6.716;2023-11-19T04:12:31;16.90;;;3.17;;
12816;SDS011;6473;51.552;6.716;2023-11-19T04:14:58;15.18;;;3.55;;
12816;SDS011;6473;51.552;6.716;2023-11-19T04:17:25;14.77;;;3.78;;
12816;SDS011;6473;51.552;6.716;2023-11-19T04:19:52;11.63;;;3.35;;
12816;SDS011;6473;51.552;6.716;2023-11-19T04:22:20;14.38;;;3.33;;
12816;SDS011;6473;51.552;6.716;2023-11-19T04:24:47;13.57;;;3.85;;
12816;SDS011;6473;51.552;6.716;2023-11-19T04:27:14;11.13;;;2.58;;
12816;SDS011;6473;51.552;6.716;2023-11-19T04:29:42;10.40;;;3.08;;
12816;SDS011;6473;51.552;6.716;2023-11-19T04:32:11;15.52;;;3.38;;
12816;SDS011;6473;51.552;6.716;2023-11-19T04:34:38;11.65;;;3.05;;
12816;SDS011;6473;51.552;6.716;2023-11-19T04:37:05;12.45;;;3.40;;
12816;SDS011;6473;51.552;6.716;2023-11-19T04:39:31;14.02;;;3.50;;
12816;SDS011;6473;51.552;6.716;2023-11-19T04:41:58;10.43;;;3.25;;
12816;SDS011;6473;51.552;6.716;2023-11-19T04:44:25;13.27;;;3.22;;
12816;SDS011;6473;51.552;6.716;2023-11-19T04:50:50;10.77;;;2.90;;
12816;SDS011;6473;51.552;6.716;2023-11-19T04:53:19;14.15;;;3.95;;
12816;SDS011;6473;51.552;6.716;2023-11-19T04:55:46;14.55;;;3.28;;
12816;SDS011;6473;51.552;6.716;2023-11-19T04:58:13;11.13;;;3.00;;
12816;SDS011;6473;51.552;6.716;2023-11-19T05:00:40;12.10;;;3.15;;
12816;SDS011;6473;51.552;6.716;2023-11-19T05:03:07;10.90;;;3.40;;
12816;SDS011;6473;51.552;6.716;2023-11-19T05:05:34;9.98;;;3.00;;
12816;SDS011;6473;51.552;6.716;2023-11-19T05:08:02;12.27;;;3.17;;
12816;SDS011;6473;51.552;6.716;2023-11-19T05:10:30;10.20;;;3.30;;
12816;SDS011;6473;51.552;6.716;2023-11-19T05:12:57;10.73;;;3.00;;
12816;SDS011;6473;51.552;6.716;2023-11-19T05:15:24;14.10;;;3.40;;
12816;SDS011;6473;51.552;6.716;2023-11-19T05:17:51;14.80;;;3.53;;
12816;SDS011;6473;51.552;6.716;2023-11-19T05:20:18;15.60;;;3.45;;
12816;SDS011;6473;51.552;6.716;2023-11-19T05:22:45;21.25;;;4.00;;
12816;SDS011;6473;51.552;6.716;2023-11-19T05:25:13;11.93;;;3.40;;
12816;SDS011;6473;51.552;6.716;2023-11-19T05:27:40;11.85;;;3.20;;
12816;SDS011;6473;51.552;6.716;2023-11-19T05:30:07;15.38;;;3.83;;
12816;SDS011;6473;51.552;6.716;2023-11-19T05:32:35;16.88;;;3.40;;
12816;SDS011;6473;51.552;6.716;2023-11-19T05:35:02;17.88;;;4.07;;
12816;SDS011;6473;51.552;6.716;2023-11-19T05:37:29;8.65;;;3.15;;
12816;SDS011;6473;51.552;6.716;2023-11-19T05:39:56;9.73;;;3.15;;
12816;SDS011;6473;51.552;6.716;2023-11-19T05:42:26;13.13;;;3.15;;
12816;SDS011;6473;51.552;6.716;2023-11-19T05:44:53;16.73;;;3.47;;
12816;SDS011;6473;51.552;6.716;2023-11-19T05:47:20;14.82;;;3.47;;
12816;SDS011;6473;51.552;6.716;2023-11-19T05:49:47;18.05;;;3.33;;
12816;SDS011;6473;51.552;6.716;2023-11-19T05:52:14;13.77;;;3.38;;
12816;SDS011;6473;51.552;6.716;2023-11-19T05:54:41;11.02;;;3.85;;
12816;SDS011;6473;51.552;6.716;2023-11-19T05:57:08;15.88;;;4.30;;
12816;SDS011;6473;51.552;6.716;2023-11-19T05:59:37;11.55;;;3.53;;
12816;SDS011;6473;51.552;6.716;2023-11-19T06:02:04;16.00;;;3.53;;
12816;SDS011;6473;51.552;6.716;2023-11-19T06:04:31;16.30;;;3.33;;
12816;SDS011;6473;51.552;6.716;2023-11-19T06:06:57;14.38;;;3.22;;
12816;SDS011;6473;51.552;6.716;2023-11-19T06:09:24;13.63;;;3.40;;
12816;SDS011;6473;51.552;6.716;2023-11-19T06:11:51;15.18;;;3.70;;
12816;SDS011;6473;51.552;6.716;2023-11-19T06:14:18;13.13;;;3.30;;
12816;SDS011;6473;51.552;6.716;2023-11-19T06:16:46;15.48;;;3.15;;
12816;SDS011;6473;51.552;6.716;2023-11-19T06:19:13;15.98;;;3.72;;
12816;SDS011;6473;51.552;6.716;2023-11-19T06:21:40;15.27;;;3.95;;
12816;SDS011;6473;51.552;6.716;2023-11-19T06:24:07;16.35;;;3.63;;
12816;SDS011;6473;51.552;6.716;2023-11-19T06:26:34;11.80;;;3.83;;
12816;SDS011;6473;51.552;6.716;2023-11-19T06:29:01;15.20;;;3.35;;
12816;SDS011;6473;51.552;6.716;2023-11-19T06:31:28;14.90;;;3.72;;
12816;SDS011;6473;51.552;6.716;2023-11-19T06:33:56;13.52;;;3.45;;
12816;SDS011;6473;51.552;6.716;2023-11-19T06:36:23;18.05;;;4.18;;
12816;SDS011;6473;51.552;6.716;2023-11-19T06:38:51;15.40;;;3.78;;
12816;SDS011;6473;51.552;6.716;2023-11-19T06:41:18;16.40;;;3.60;;
12816;SDS011;6473;51.552;6.716;2023-11-19T06:43:45;18.85;;;3.92;;
12816;SDS011;6473;51.552;6.716;2023-11-19T06:46:15;12.10;;;3.30;;
12816;SDS011;6473;51.552;6.716;2023-11-19T06:48:42;11.75;;;3.58;;
12816;SDS011;6473;51.552;6.716;2023-11-19T06:51:11;15.45;;;3.10;;
12816;SDS011;6473;51.552;6.716;2023-11-19T06:53:38;14.15;;;3.38;;
12816;SDS011;6473;51.552;6.716;2023-11-19T06:56:06;13.77;;;3.58;;
12816;SDS011;6473;51.552;6.716;2023-11-19T06:58:43;14.77;;;3.58;;
12816;SDS011;6473;51.552;6.716;2023-11-19T07:01:10;14.07;;;3.33;;
12816;SDS011;6473;51.552;6.716;2023-11-19T07:03:37;16.73;;;3.70;;
12816;SDS011;6473;51.552;6.716;2023-11-19T07:06:04;15.68;;;3.83;;
12816;SDS011;6473;51.552;6.716;2023-11-19T07:08:33;14.25;;;2.92;;
12816;SDS011;6473;51.552;6.716;2023-11-19T07:11:01;15.68;;;3.17;;
12816;SDS011;6473;51.552;6.716;2023-11-19T07:13:29;14.82;;;3.10;;
12816;SDS011;6473;51.552;6.716;2023-11-19T07:15:56;11.73;;;3.70;;
12816;SDS011;6473;51.552;6.716;2023-11-19T07:18:23;15.80;;;3.80;;
12816;SDS011;6473;51.552;6.716;2023-11-19T07:20:51;17.40;;;3.42;;
12816;SDS011;6473;51.552;6.716;2023-11-19T07:23:18;16.58;;;3.65;;
12816;SDS011;6473;51.552;6.716;2023-11-19T07:25:48;16.52;;;3.50;;
12816;SDS011;6473;51.552;6.716;2023-11-19T07:28:17;14.95;;;3.05;;
12816;SDS011;6473;51.552;6.716;2023-11-19T07:30:44;17.85;;;3.22;;
12816;SDS011;6473;51.552;6.716;2023-11-19T07:33:11;15.48;;;3.22;;
12816;SDS011;6473;51.552;6.716;2023-11-19T07:35:38;19.02;;;3.28;;
12816;SDS011;6473;51.552;6.716;2023-11-19T07:38:07;16.55;;;3.88;;
12816;SDS011;6473;51.552;6.716;2023-11-19T07:40:34;17.08;;;5.15;;
12816;SDS011;6473;51.552;6.716;2023-11-19T07:43:03;20.42;;;3.97;;
12816;SDS011;6473;51.552;6.716;2023-11-19T07:45:30;20.67;;;3.88;;
12816;SDS011;6473;51.552;6.716;2023-11-19T07:47:57;13.70;;;3.10;;
12816;SDS011;6473;51.552;6.716;2023-11-19T07:58:13;12.40;;;3.58;;
12816;SDS011;6473;51.552;6.716;2023-11-19T08:00:39;13.27;;;2.80;;
12816;SDS011;6473;51.552;6.716;2023-11-19T08:14:37;15.95;;;4.03;;
12816;SDS011;6473;51.552;6.716;2023-11-19T08:17:05;12.07;;;3.05;;
12816;SDS011;6473;51.552;6.716;2023-11-19T08:19:34;11.68;;;3.58;;
12816;SDS011;6473;51.552;6.716;2023-11-19T08:22:01;22.00;;;4.03;;
12816;SDS011;6473;51.552;6.716;2023-11-19T08:24:28;15.02;;;3.92;;
12816;SDS011;6473;51.552;6.716;2023-11-19T08:30:59;14.15;;;3.85;;
12816;SDS011;6473;51.552;6.716;2023-11-19T08:33:26;14.80;;;3.20;;
12816;SDS011;6473;51.552;6.716;2023-11-19T08:35:53;13.88;;;3.50;;
12816;SDS011;6473;51.552;6.716;2023-11-19T08:38:20;17.63;;;3.42;;
12816;SDS011;6473;51.552;6.716;2023-11-19T08:41:02;16.23;;;4.05;;
12816;SDS011;6473;51.552;6.716;2023-11-19T08:46:47;18.48;;;3.60;;
12816;SDS011;6473;51.552;6.716;2023-11-19T08:49:14;11.32;;;3.65;;
12816;SDS011;6473;51.552;6.716;2023-11-19T08:51:41;9.95;;;3.00;;
12816;SDS011;6473;51.552;6.716;2023-11-19T08:54:08;16.83;;;3.55;;
12816;SDS011;6473;51.552;6.716;2023-11-19T08:56:35;14.00;;;3.72;;
12816;SDS011;6473;51.552;6.716;2023-11-19T08:59:04;15.15;;;3.22;;
12816;SDS011;6473;51.552;6.716;2023-11-19T09:01:31;15.15;;;3.13;;
12816;SDS011;6473;51.552;6.716;2023-11-19T09:03:59;13.52;;;2.92;;
12816;SDS011;6473;51.552;6.716;2023-11-19T09:06:26;8.93;;;3.30;;
12816;SDS011;6473;51.552;6.716;2023-11-19T09:08:53;15.30;;;3.30;;
12816;SDS011;6473;51.552;6.716;2023-11-19T09:11:25;15.88;;;3.97;;
12816;SDS011;6473;51.552;6.716;2023-11-19T09:13:52;15.45;;;3.28;;
12816;SDS011;6473;51.552;6.716;2023-11-19T09:16:19;18.80;;;3.35;;
12816;SDS011;6473;51.552;6.716;2023-11-19T09:18:46;14.93;;;3.92;;
12816;SDS011;6473;51.552;6.716;2023-11-19T09:25:02;19.60;;;4.00;;
12816;SDS011;6473;51.552;6.716;2023-11-19T09:27:32;15.80;;;4.70;;
12816;SDS011;6473;51.552;6.716;2023-11-19T09:29:59;13.38;;;3.05;;
12816;SDS011;6473;51.552;6.716;2023-11-19T09:32:26;14.80;;;3.70;;
12816;SDS011;6473;51.552;6.716;2023-11-19T09:34:52;11.90;;;3.05;;
12816;SDS011;6473;51.552;6.716;2023-11-19T09:44:10;13.60;;;3.85;;
12816;SDS011;6473;51.552;6.716;2023-11-19T09:46:40;10.25;;;2.75;;
12816;SDS011;6473;51.552;6.716;2023-11-19T09:49:08;13.38;;;3.72;;
12816;SDS011;6473;51.552;6.716;2023-11-19T09:51:36;13.55;;;3.35;;
12816;SDS011;6473;51.552;6.716;2023-11-19T09:54:04;15.55;;;3.65;;
12816;SDS011;6473;51.552;6.716;2023-11-19T09:56:32;14.80;;;4.03;;
12816;SDS011;6473;51.552;6.716;2023-11-19T09:59:03;14.23;;;3.53;;
12816;SDS011;6473;51.552;6.716;2023-11-19T10:04:14;10.15;;;3.65;;
12816;SDS011;6473;51.552;6.716;2023-11-19T10:06:43;14.50;;;3.40;;
12816;SDS011;6473;51.552;6.716;2023-11-19T10:09:11;11.48;;;3.47;;
12816;SDS011;6473;51.552;6.716;2023-11-19T10:11:40;13.43;;;3.70;;
12816;SDS011;6473;51.552;6.716;2023-11-19T10:14:08;18.85;;;3.78;;
12816;SDS011;6473;51.552;6.716;2023-11-19T10:16:45;13.18;;;3.28;;
12816;SDS011;6473;51.552;6.716;2023-11-19T10:23:00;20.75;;;4.20;;
12816;SDS011;6473;51.552;6.716;2023-11-19T10:29:19;12.95;;;2.83;;
12816;SDS011;6473;51.552;6.716;2023-11-19T10:35:35;11.18;;;3.17;;
12816;SDS011;6473;51.552;6.716;2023-11-19T10:38:16;15.15;;;3.22;;
12816;SDS011;6473;51.552;6.716;2023-11-19T10:40:43;18.70;;;3.83;;
12816;SDS011;6473;51.552;6.716;2023-11-19T10:46:12;14.20;;;3.38;;
12816;SDS011;6473;51.552;6.716;2023-11-19T10:48:46;9.63;;;3.30;;
12816;SDS011;6473;51.552;6.716;2023-11-19T10:51:13;9.45;;;2.65;;
12816;SDS011;6473;51.552;6.716;2023-11-19T11:01:13;11.48;;;3.13;;
12816;SDS011;6473;51.552;6.716;2023-11-19T11:06:49;14.23;;;3.28;;
12816;SDS011;6473;51.552;6.716;2023-11-19T11:09:17;19.83;;;3.40;;
12816;SDS011;6473;51.552;6.716;2023-11-19T11:11:44;19.33;;;4.22;;
12816;SDS011;6473;51.552;6.716;2023-11-19T11:14:13;13.32;;;3.30;;
12816;SDS011;6473;51.552;6.716;2023-11-19T11:16:43;12.13;;;2.90;;
12816;SDS011;6473;51.552;6.716;2023-11-19T11:19:11;11.73;;;2.80;;
12816;SDS011;6473;51.552;6.716;2023-11-19T11:21:39;12.13;;;4.05;;
12816;SDS011;6473;51.552;6.716;2023-11-19T11:27:13;15.05;;;3.33;;
12816;SDS011;6473;51.552;6.716;2023-11-19T11:34:56;13.60;;;3.13;;
12816;SDS011;6473;51.552;6.716;2023-11-19T11:53:41;20.73;;;3.75;;
12816;SDS011;6473;51.552;6.716;2023-11-19T11:59:56;16.35;;;3.17;;
12816;SDS011;6473;51.552;6.716;2023-11-19T12:02:23;12.00;;;3.17;;
12816;SDS011;6473;51.552;6.716;2023-11-19T12:04:52;13.15;;;2.92;;
12816;SDS011;6473;51.552;6.716;2023-11-19T12:07:20;12.68;;;2.95;;
12816;SDS011;6473;51.552;6.716;2023-11-19T12:09:51;14.40;;;3.60;;
12816;SDS011;6473;51.552;6.716;2023-11-19T12:12:26;13.63;;;2.90;;
12816;SDS011;6473;51.552;6.716;2023-11-19T12:15:00;9.77;;;2.53;;
12816;SDS011;6473;51.552;6.716;2023-11-19T12:24:45;13.85;;;2.90;;
12816;SDS011;6473;51.552;6.716;2023-11-19T12:27:16;10.07;;;3.42;;
12816;SDS011;6473;51.552;6.716;2023-11-19T12:29:44;8.20;;;2.53;;
12816;SDS011;6473;51.552;6.716;2023-11-19T12:32:25;14.40;;;3.50;;
12816;SDS011;6473;51.552;6.716;2023-11-19T12:34:52;18.08;;;3.35;;
12816;SDS011;6473;51.552;6.716;2023-11-19T12:37:20;11.48;;;2.30;;
12816;SDS011;6473;51.552;6.716;2023-11-19T12:40:09;13.25;;;2.92;;
12816;SDS011;6473;51.552;6.716;2023-11-19T12:42:41;12.82;;;2.97;;
12816;SDS011;6473;51.552;6.716;2023-11-19T12:45:09;12.88;;;2.67;;
12816;SDS011;6473;51.552;6.716;2023-11-19T12:47:39;11.30;;;2.58;;
12816;SDS011;6473;51.552;6.716;2023-11-19T13:03:38;9.50;;;2.60;;
12816;SDS011;6473;51.552;6.716;2023-11-19T13:06:06;10.48;;;2.78;;
12816;SDS011;6473;51.552;6.716;2023-11-19T13:08:36;9.32;;;2.72;;
12816;SDS011;6473;51.552;6.716;2023-11-19T13:11:04;5.97;;;2.03;;
12816;SDS011;6473;51.552;6.716;2023-11-19T13:20:40;10.20;;;2.75;;
12816;SDS011;6473;51.552;6.716;2023-11-19T13:23:08;8.80;;;2.40;;
12816;SDS011;6473;51.552;6.716;2023-11-19T13:25:35;10.63;;;2.40;;
12816;SDS011;6473;51.552;6.716;2023-11-19T13:28:02;9.75;;;2.28;;
12816;SDS011;6473;51.552;6.716;2023-11-19T13:30:31;8.70;;;2.47;;
12816;SDS011;6473;51.552;6.716;2023-11-19T13:42:29;8.98;;;3.03;;
12816;SDS011;6473;51.552;6.716;2023-11-19T13:44:56;10.15;;;2.45;;
12816;SDS011;6473;51.552;6.716;2023-11-19T13:47:23;10.45;;;3.20;;
12816;SDS011;6473;51.552;6.716;2023-11-19T13:49:50;9.85;;;3.05;;
12816;SDS011;6473;51.552;6.716;2023-11-19T13:52:18;11.82;;;2.65;;
12816;SDS011;6473;51.552;6.716;2023-11-19T13:54:44;13.35;;;2.97;;
12816;SDS011;6473;51.552;6.716;2023-11-19T14:34:54;11.45;;;2.67;;
12816;SDS011;6473;51.552;6.716;2023-11-19T14:37:20;13.73;;;3.10;;
12816;SDS011;6473;51.552;6.716;2023-11-19T14:39:47;13.57;;;2.65;;
12816;SDS011;6473;51.552;6.716;2023-11-19T14:42:15;13.35;;;3.05;;
12816;SDS011;6473;51.552;6.716;2023-11-19T14:44:42;14.20;;;2.92;;
12816;SDS011;6473;51.552;6.716;2023-11-19T14:49:59;12.45;;;3.85;;
12816;SDS011;6473;51.552;6.716;2023-11-19T14:52:28;10.90;;;2.88;;
12816;SDS011;6473;51.552;6.716;2023-11-19T14:54:55;10.27;;;2.40;;
12816;SDS011;6473;51.552;6.716;2023-11-19T14:57:22;11.98;;;3.05;;
12816;SDS011;6473;51.552;6.716;2023-11-19T14:59:48;11.13;;;3.75;;
12816;SDS011;6473;51.552;6.716;2023-11-19T15:17:51;11.23;;;3.00;;
12816;SDS011;6473;51.552;6.716;2023-11-19T15:20:18;9.95;;;2.80;;
12816;SDS011;6473;51.552;6.716;2023-11-19T15:22:46;10.00;;;2.70;;
12816;SDS011;6473;51.552;6.716;2023-11-19T15:25:13;10.85;;;2.85;;
12816;SDS011;6473;51.552;6.716;2023-11-19T15:27:40;7.50;;;2.47;;
12816;SDS011;6473;51.552;6.716;2023-11-19T15:30:07;12.18;;;2.97;;
12816;SDS011;6473;51.552;6.716;2023-11-19T15:35:34;8.82;;;2.85;;
12816;SDS011;6473;51.552;6.716;2023-11-19T15:38:01;11.55;;;3.17;;
12816;SDS011;6473;51.552;6.716;2023-11-19T15:40:28;10.90;;;3.10;;
12816;SDS011;6473;51.552;6.716;2023-11-19T15:42:55;11.20;;;3.08;;
12816;SDS011;6473;51.552;6.716;2023-11-19T16:03:52;9.30;;;2.70;;
12816;SDS011;6473;51.552;6.716;2023-11-19T16:06:19;12.48;;;2.95;;
12816;SDS011;6473;51.552;6.716;2023-11-19T16:08:46;14.85;;;3.78;;
12816;SDS011;6473;51.552;6.716;2023-11-19T16:11:13;11.60;;;3.47;;
12816;SDS011;6473;51.552;6.716;2023-11-19T16:13:41;8.52;;;2.63;;
12816;SDS011;6473;51.552;6.716;2023-11-19T16:30:43;14.85;;;3.38;;
12816;SDS011;6473;51.552;6.716;2023-11-19T16:33:10;14.35;;;3.33;;
12816;SDS011;6473;51.552;6.716;2023-11-19T16:35:38;15.55;;;3.60;;
12816;SDS011;6473;51.552;6.716;2023-11-19T16:46:06;9.45;;;3.00;;
12816;SDS011;6473;51.552;6.716;2023-11-19T16:56:14;11.48;;;3.50;;
12816;SDS011;6473;51.552;6.716;2023-11-19T16:58:42;12.43;;;3.10;;
12816;SDS011;6473;51.552;6.716;2023-11-19T17:01:10;8.73;;;2.80;;
12816;SDS011;6473;51.552;6.716;2023-11-19T17:03:39;11.48;;;3.60;;
12816;SDS011;6473;51.552;6.716;2023-11-19T17:06:22;11.40;;;2.90;;
12816;SDS011;6473;51.552;6.716;2023-11-19T17:08:49;10.18;;;2.90;;
12816;SDS011;6473;51.552;6.716;2023-11-19T17:11:17;8.32;;;3.58;;
12816;SDS011;6473;51.552;6.716;2023-11-19T17:13:44;14.25;;;2.97;;
12816;SDS011;6473;51.552;6.716;2023-11-19T17:23:58;11.25;;;2.90;;
12816;SDS011;6473;51.552;6.716;2023-11-19T17:30:12;12.18;;;2.60;;
12816;SDS011;6473;51.552;6.716;2023-11-19T17:32:48;10.18;;;2.90;;
12816;SDS011;6473;51.552;6.716;2023-11-19T17:35:15;8.45;;;3.17;;
12816;SDS011;6473;51.552;6.716;2023-11-19T17:37:42;8.55;;;2.78;;
12816;SDS011;6473;51.552;6.716;2023-11-19T17:40:11;9.75;;;3.15;;
12816;SDS011;6473;51.552;6.716;2023-11-19T17:42:42;9.90;;;3.05;;
12816;SDS011;6473;51.552;6.716;2023-11-19T17:45:09;9.20;;;2.88;;
12816;SDS011;6473;51.552;6.716;2023-11-19T17:58:20;10.43;;;2.97;;
12816;SDS011;6473;51.552;6.716;2023-11-19T18:06:36;9.75;;;3.47;;
12816;SDS011;6473;51.552;6.716;2023-11-19T18:09:03;9.45;;;3.38;;
12816;SDS011;6473;51.552;6.716;2023-11-19T18:11:35;17.05;;;3.80;;
12816;SDS011;6473;51.552;6.716;2023-11-19T18:14:04;11.52;;;3.58;;
12816;SDS011;6473;51.552;6.716;2023-11-19T18:16:31;15.02;;;3.60;;
12816;SDS011;6473;51.552;6.716;2023-11-19T18:18:58;17.23;;;3.88;;
12816;SDS011;6473;51.552;6.716;2023-11-19T18:21:25;12.18;;;3.38;;
12816;SDS011;6473;51.552;6.716;2023-11-19T18:26:41;16.60;;;3.42;;
12816;SDS011;6473;51.552;6.716;2023-11-19T18:29:09;11.75;;;3.20;;
12816;SDS011;6473;51.552;6.716;2023-11-19T18:32:05;12.38;;;3.85;;
12816;SDS011;6473;51.552;6.716;2023-11-19T18:34:34;14.75;;;3.90;;
12816;SDS011;6473;51.552;6.716;2023-11-19T18:37:01;11.27;;;2.90;;
12816;SDS011;6473;51.552;6.716;2023-11-19T18:43:17;10.45;;;3.13;;
12816;SDS011;6473;51.552;6.716;2023-11-19T18:49:02;14.55;;;3.03;;
12816;SDS011;6473;51.552;6.716;2023-11-19T18:51:30;11.85;;;2.75;;
12816;SDS011;6473;51.552;6.716;2023-11-19T18:54:15;13.15;;;3.42;;
12816;SDS011;6473;51.552;6.716;2023-11-19T18:56:44;12.45;;;2.75;;
12816;SDS011;6473;51.552;6.716;2023-11-19T18:59:11;9.63;;;3.38;;
12816;SDS011;6473;51.552;6.716;2023-11-19T19:07:05;12.30;;;3.00;;
12816;SDS011;6473;51.552;6.716;2023-11-19T19:09:35;9.02;;;2.55;;
12816;SDS011;6473;51.552;6.716;2023-11-19T19:12:03;11.48;;;3.17;;
12816;SDS011;6473;51.552;6.716;2023-11-19T19:14:31;9.85;;;2.97;;
12816;SDS011;6473;51.552;6.716;2023-11-19T19:16:58;13.77;;;3.38;;
12816;SDS011;6473;51.552;6.716;2023-11-19T19:19:24;7.85;;;2.85;;
12816;SDS011;6473;51.552;6.716;2023-11-19T19:21:52;8.90;;;2.58;;
12816;SDS011;6473;51.552;6.716;2023-11-19T19:24:20;7.82;;;3.15;;
12816;SDS011;6473;51.552;6.716;2023-11-19T19:26:47;9.35;;;2.47;;
12816;SDS011;6473;51.552;6.716;2023-11-19T19:29:14;10.75;;;3.10;;
12816;SDS011;6473;51.552;6.716;2023-11-19T19:31:42;10.20;;;3.00;;
12816;SDS011;6473;51.552;6.716;2023-11-19T19:34:09;9.45;;;3.00;;
12816;SDS011;6473;51.552;6.716;2023-11-19T19:36:36;13.43;;;2.88;;
12816;SDS011;6473;51.552;6.716;2023-11-19T19:39:03;9.32;;;2.75;;
12816;SDS011;6473;51.552;6.716;2023-11-19T19:41:33;6.45;;;2.53;;
12816;SDS011;6473;51.552;6.716;2023-11-19T19:44:00;9.20;;;2.95;;
12816;SDS011;6473;51.552;6.716;2023-11-19T19:46:27;9.18;;;2.67;;
12816;SDS011;6473;51.552;6.716;2023-11-19T19:48:54;7.68;;;3.33;;
12816;SDS011;6473;51.552;6.716;2023-11-19T19:51:22;10.10;;;3.40;;
12816;SDS011;6473;51.552;6.716;2023-11-19T19:53:49;10.27;;;2.80;;
12816;SDS011;6473;51.552;6.716;2023-11-19T19:56:16;6.55;;;2.28;;
12816;SDS011;6473;51.552;6.716;2023-11-19T19:58:45;10.13;;;2.70;;
12816;SDS011;6473;51.552;6.716;2023-11-19T20:01:12;7.28;;;2.90;;
12816;SDS011;6473;51.552;6.716;2023-11-19T20:03:39;8.95;;;2.90;;
12816;SDS011;6473;51.552;6.716;2023-11-19T20:06:06;4.30;;;2.20;;
12816;SDS011;6473;51.552;6.716;2023-11-19T20:08:36;7.97;;;2.40;;
12816;SDS011;6473;51.552;6.716;2023-11-19T20:11:03;6.53;;;2.60;;
12816;SDS011;6473;51.552;6.716;2023-11-19T20:13:32;6.15;;;2.22;;